Sturgeon Bay, WI

3:00 PM CST on December 17, 2014 (GMT -0600)
Manitowoc County | Change Station
CLOSE
Current Station
Airport
Location: Manitowoc,
Elevation: 650 ft
Nearby Weather Stations

Elev 650 ft 44.13 °N, 87.68 °W | Updated 1 hour ago

Overcast
Overcast
27 °F
Feels Like 14 °F
N
17
Wind Variable Wind from NW
Gusts 22 mph

Today
High -- | Low -- °F
--% Chance of Precip.
Yesterday
High -- | Low -- °F
Precip. -- in
7:21 AM 4:09 PM
Waning Crescent, 20% visible
Pressure 30.22 in
Visibility 9.0 miles
Clouds Few 2700 ft
Scattered Clouds 3700 ft
Overcast 10000 ft
Windchill 14 °F
Dew Point 18 °F
Humidity 69%
Rainfall 0.00 in
Snow Depth Not available.
UV 0 out of 12
Pollen .10 out of 12
Air Quality Not available.
Flu Activity Not available.
METAR KMTW 171956Z AUTO 31015G19KT 9SM FEW027 SCT037 OVC100 M03/M08 A3015 RMK AO2 SNB42E51 SLP234 P0000 T10281078 FZRANO

More Conditions Fewer Conditions

Pressure 30.22 in
Visibility 9.0 miles
Clouds Few 2700 ft
Scattered Clouds 3700 ft
Overcast 10000 ft
Windchill 14 °F
Dew Point 18 °F
Humidity 69%
Rainfall 0.00 in
Snow Depth Not available.
UV 0 out of 12
Pollen .10 out of 12
Air Quality Not available.
Flu Activity Not available.
METAR KMTW 171956Z AUTO 31015G19KT 9SM FEW027 SCT037 OVC100 M03/M08 A3015 RMK AO2 SNB42E51 SLP234 P0000 T10281078 FZRANO

More Conditions Fewer Conditions

10-Day Weather Forecast

Almanac

Astronomy

Dec. 17, 2014 Rise Set
Actual Time
Civil Twilight
Nautical Twilight
Astronomical Twilight
Moon
Length of Visible Light
Length of Day
Tomorrow will be .
, % of the Moon is Illuminated

Today's Extremes

State Highs State Lows

Community

WunderPhotos

Upload Photos

1,778,803 photos uploaded!

WunderBlogs® & News

Nearby

Air Quality

  Air Quality AQ Index Pollutant
Not available.

Snow Depth

Station Depth Elevation

Earthquake Activity

City Distance Mag. Time & Date
Minimum magnitude displayed is 2.5.

Coastal Water Temperatures

Place Temperature

Nearby Weather Stations